createdAt,value
2022-09-09T00:01:44.825Z,1.17
2022-09-09T00:04:31.768Z,1.50
2022-09-09T00:07:04.521Z,1.17
2022-09-09T00:09:47.255Z,1.35
2022-09-09T00:12:17.082Z,1.00
2022-09-09T00:14:56.771Z,1.10
2022-09-09T00:17:47.370Z,1.00
2022-09-09T00:20:25.032Z,1.00
2022-09-09T00:23:00.294Z,1.23
2022-09-09T00:25:35.293Z,1.45
2022-09-09T00:30:33.598Z,1.27
2022-09-09T00:33:14.082Z,1.15
2022-09-09T00:35:43.183Z,1.08
2022-09-09T00:38:28.403Z,1.30
2022-09-09T00:43:24.238Z,1.20
2022-09-09T00:45:57.536Z,1.10
2022-09-09T00:48:31.372Z,1.15
2022-09-09T00:51:01.297Z,1.42
2022-09-09T00:53:28.863Z,1.30
2022-09-09T00:56:02.035Z,1.33
2022-09-09T00:58:29.432Z,1.05
2022-09-09T01:01:00.420Z,1.17
2022-09-09T01:03:38.212Z,1.33
2022-09-09T01:06:19.994Z,1.50
2022-09-09T01:11:26.808Z,1.50
2022-09-09T01:14:04.368Z,1.60
2022-09-09T01:16:32.177Z,1.50
2022-09-09T01:19:00.699Z,1.67
2022-09-09T01:21:57.395Z,1.50
2022-09-09T01:24:40.835Z,1.30
2022-09-09T01:27:08.398Z,1.30
2022-09-09T01:29:35.669Z,1.27
2022-09-09T01:32:21.557Z,1.48
2022-09-09T01:34:48.959Z,1.50
2022-09-09T01:37:16.210Z,1.20
2022-09-09T01:39:44.651Z,1.33
2022-09-09T01:42:13.615Z,1.40
2022-09-09T01:44:40.950Z,1.15
2022-09-09T01:47:08.463Z,1.15
2022-09-09T01:49:38.129Z,1.35
2022-09-09T01:52:05.577Z,1.40
2022-09-09T01:54:34.400Z,1.27
2022-09-09T01:57:17.425Z,1.30
2022-09-09T02:00:05.881Z,0.98
2022-09-09T02:02:53.293Z,1.48
2022-09-09T02:05:31.207Z,1.40
2022-09-09T02:08:09.961Z,1.25
2022-09-09T02:10:46.654Z,1.30
2022-09-09T02:13:19.271Z,1.20
2022-09-09T02:15:54.905Z,1.30
2022-09-09T02:18:28.384Z,1.10
2022-09-09T02:20:56.008Z,1.30
2022-09-09T02:23:23.234Z,0.98
2022-09-09T02:25:52.832Z,1.27
2022-09-09T02:28:22.335Z,1.10
2022-09-09T02:30:56.127Z,1.10
2022-09-09T02:33:28.951Z,1.20
2022-09-09T02:36:02.722Z,1.13
2022-09-09T02:38:31.457Z,0.90
2022-09-09T02:40:59.651Z,1.20
2022-09-09T02:43:26.800Z,1.20
2022-09-09T02:46:03.196Z,1.10
2022-09-09T02:48:44.909Z,1.00
2022-09-09T02:51:18.238Z,1.02
2022-09-09T02:53:49.692Z,1.20
2022-09-09T02:56:18.677Z,1.13
2022-09-09T02:58:46.428Z,1.00
2022-09-09T03:01:20.026Z,1.20
2022-09-09T03:03:50.306Z,1.38
2022-09-09T03:06:20.228Z,1.13
2022-09-09T03:08:57.001Z,1.48
2022-09-09T03:11:36.721Z,0.88
2022-09-09T03:14:12.421Z,1.05
2022-09-09T03:16:39.700Z,1.10
2022-09-09T03:19:12.051Z,1.02
2022-09-09T03:21:39.583Z,1.30
2022-09-09T03:24:07.621Z,1.20
2022-09-09T03:26:35.643Z,1.00
2022-09-09T03:29:02.782Z,1.30
2022-09-09T03:31:31.292Z,1.35
2022-09-09T03:33:59.195Z,1.33
2022-09-09T03:36:29.464Z,1.42
2022-09-09T03:38:57.240Z,1.45
2022-09-09T03:41:25.165Z,1.00
2022-09-09T03:43:52.876Z,1.10
2022-09-09T03:46:20.480Z,1.05
2022-09-09T03:48:47.750Z,1.13
2022-09-09T03:51:16.146Z,1.00
2022-09-09T03:53:44.116Z,1.10
2022-09-09T03:56:11.555Z,1.17
2022-09-09T03:58:39.602Z,1.73
2022-09-09T04:01:07.035Z,1.25
2022-09-09T04:03:34.237Z,0.93
2022-09-09T04:06:03.093Z,0.98
2022-09-09T04:08:32.293Z,1.20
2022-09-09T04:10:59.494Z,1.08
2022-09-09T04:13:27.439Z,1.50
2022-09-09T04:15:58.695Z,1.05
2022-09-09T04:18:27.010Z,0.90
2022-09-09T04:20:54.524Z,1.25
2022-09-09T04:23:21.798Z,1.15
2022-09-09T04:25:49.699Z,1.00
2022-09-09T04:28:17.591Z,1.00
2022-09-09T04:30:45.680Z,1.58
2022-09-09T04:33:13.278Z,1.55
2022-09-09T04:35:41.224Z,1.30
2022-09-09T04:38:10.371Z,1.15
2022-09-09T04:40:37.747Z,0.95
2022-09-09T04:43:05.925Z,1.27
2022-09-09T04:45:34.606Z,1.33
2022-09-09T04:48:02.086Z,1.20
2022-09-09T04:50:29.747Z,1.10
2022-09-09T04:52:56.916Z,1.30
2022-09-09T04:55:24.159Z,1.38
2022-09-09T04:57:51.511Z,1.00
2022-09-09T05:00:19.880Z,1.23
2022-09-09T05:02:48.617Z,1.10
2022-09-09T05:05:16.059Z,1.05
2022-09-09T05:07:43.225Z,1.27
2022-09-09T05:10:11.566Z,1.20
2022-09-09T05:12:38.789Z,1.20
2022-09-09T05:15:06.267Z,1.02
2022-09-09T05:17:35.654Z,1.63
2022-09-09T05:20:07.655Z,1.20
2022-09-09T05:22:36.988Z,0.93
2022-09-09T05:25:04.298Z,1.35
2022-09-09T05:27:34.227Z,1.00
2022-09-09T05:30:01.473Z,1.20
2022-09-09T05:32:28.848Z,1.30
2022-09-09T05:34:56.560Z,1.00
2022-09-09T05:37:24.303Z,1.10
2022-09-09T05:39:51.541Z,1.13
2022-09-09T05:42:18.725Z,1.42
2022-09-09T05:44:45.958Z,1.40
2022-09-09T05:47:13.071Z,1.10
2022-09-09T05:49:40.475Z,0.75
2022-09-09T05:52:07.652Z,0.82
2022-09-09T05:54:35.023Z,1.20
2022-09-09T05:57:02.225Z,1.27
2022-09-09T05:59:29.448Z,0.90
2022-09-09T06:01:57.284Z,1.23
2022-09-09T06:04:26.278Z,1.25
2022-09-09T06:06:53.519Z,1.00
2022-09-09T06:09:21.111Z,1.40
2022-09-09T06:11:48.362Z,1.15
2022-09-09T06:14:15.696Z,1.20
2022-09-09T06:16:45.848Z,0.90
2022-09-09T06:19:13.844Z,0.95
2022-09-09T06:21:41.883Z,1.05
2022-09-09T06:24:09.059Z,1.02
2022-09-09T06:26:38.151Z,1.00
2022-09-09T06:29:05.807Z,1.00
2022-09-09T06:31:35.459Z,1.10
2022-09-09T06:34:03.175Z,1.65
2022-09-09T06:36:32.082Z,1.00
2022-09-09T06:38:59.888Z,1.08
2022-09-09T06:41:28.556Z,0.98
2022-09-09T06:43:59.355Z,1.38
2022-09-09T06:46:32.218Z,1.90
2022-09-09T06:49:00.841Z,2.10
2022-09-09T06:51:32.639Z,1.50
2022-09-09T06:54:01.159Z,1.30
2022-09-09T06:56:38.337Z,1.10
2022-09-09T06:59:06.871Z,1.17
2022-09-09T07:01:38.077Z,1.10
2022-09-09T07:04:09.909Z,1.10
2022-09-09T07:06:38.646Z,0.82
2022-09-09T07:38:28.885Z,1.25
2022-09-09T07:58:24.927Z,1.30
2022-09-09T08:31:30.517Z,1.08
2022-09-09T08:35:08.072Z,0.95
2022-09-09T08:45:09.592Z,0.80
2022-09-09T08:48:01.164Z,1.63
2022-09-09T08:50:49.443Z,1.10
2022-09-09T08:53:31.920Z,0.80
2022-09-09T08:56:29.904Z,0.77
2022-09-09T09:12:22.381Z,1.27
2022-09-09T09:14:53.130Z,1.15
2022-09-09T09:17:32.772Z,1.45
2022-09-09T09:20:09.831Z,1.30
2022-09-09T09:22:57.589Z,1.20
2022-09-09T09:25:34.415Z,1.55
2022-09-09T09:28:09.439Z,1.40
2022-09-09T09:30:49.171Z,1.30
2022-09-09T09:33:22.197Z,1.17
2022-09-09T09:35:57.895Z,1.17
2022-09-09T09:41:20.351Z,1.10
2022-09-09T09:46:58.543Z,1.20
2022-09-09T10:00:05.856Z,1.00
2022-09-09T10:02:58.074Z,1.10
2022-09-09T10:05:46.423Z,1.05
2022-09-09T10:08:20.974Z,1.10
2022-09-09T10:14:17.913Z,1.10
2022-09-09T10:16:50.565Z,1.40
2022-09-09T10:19:36.177Z,1.17
2022-09-09T10:22:18.488Z,0.98
2022-09-09T10:25:07.733Z,1.00
2022-09-09T10:27:40.050Z,1.00
2022-09-09T10:30:16.491Z,1.10
2022-09-09T10:32:46.842Z,1.20
2022-09-09T10:35:29.763Z,0.90
2022-09-09T10:38:10.078Z,0.88
2022-09-09T10:40:54.792Z,0.80
2022-09-09T11:00:53.807Z,1.05
2022-09-09T11:06:46.995Z,1.15
2022-09-09T11:12:49.783Z,0.82
2022-09-09T11:29:19.029Z,0.70
2022-09-09T11:32:19.863Z,0.52
2022-09-09T11:54:12.159Z,0.73
2022-09-09T12:03:09.702Z,0.68
2022-09-09T12:12:44.004Z,0.47
2022-09-09T12:15:23.447Z,0.47
2022-09-09T12:25:11.134Z,0.60
2022-09-09T12:34:54.044Z,0.63
2022-09-09T12:49:21.328Z,0.55
2022-09-09T12:51:49.379Z,0.60
2022-09-09T12:54:16.920Z,0.55
2022-09-09T12:56:54.496Z,0.40
2022-09-09T13:02:53.622Z,0.55
2022-09-09T13:05:28.334Z,0.43
2022-09-09T13:08:09.222Z,0.52
2022-09-09T13:10:52.422Z,0.60
2022-09-09T13:13:24.607Z,0.60
2022-09-09T13:15:52.954Z,0.57
2022-09-09T13:18:22.501Z,0.45
2022-09-09T13:20:50.318Z,0.40
2022-09-09T13:23:18.288Z,0.68
2022-09-09T13:25:54.748Z,0.45
2022-09-09T13:28:23.478Z,0.40
2022-09-09T13:31:03.264Z,0.47
2022-09-09T13:33:32.528Z,0.55
2022-09-09T13:36:05.372Z,0.50
2022-09-09T13:38:34.041Z,0.40
2022-09-09T13:41:08.855Z,0.40
2022-09-09T13:46:04.622Z,0.45
2022-09-09T13:48:32.796Z,0.50
2022-09-09T13:51:01.331Z,0.47
2022-09-09T13:53:29.567Z,0.57
2022-09-09T13:55:57.854Z,0.47
2022-09-09T13:58:26.100Z,0.40
2022-09-09T14:00:54.446Z,0.43
2022-09-09T14:03:22.409Z,0.47
2022-09-09T14:05:49.890Z,0.60
2022-09-09T14:08:19.210Z,0.25
2022-09-09T14:10:46.438Z,0.50
2022-09-09T14:13:13.548Z,0.57
2022-09-09T14:15:40.690Z,0.68
2022-09-09T14:18:07.776Z,0.52
2022-09-09T14:20:34.901Z,0.40
2022-09-09T14:23:03.597Z,0.38
2022-09-09T14:25:30.938Z,0.30
2022-09-09T14:27:58.167Z,1.67
2022-09-09T14:30:25.336Z,0.60
2022-09-09T14:32:52.435Z,0.50
2022-09-09T14:35:19.515Z,0.50
2022-09-09T14:37:47.405Z,0.47
2022-09-09T14:40:15.365Z,0.47
2022-09-09T14:42:42.535Z,0.65
2022-09-09T14:45:10.532Z,0.55
2022-09-09T14:47:39.060Z,0.60
2022-09-09T14:50:07.104Z,0.45
2022-09-09T14:52:34.279Z,0.60
2022-09-09T14:55:01.389Z,0.60
2022-09-09T14:57:28.998Z,0.50
2022-09-09T14:59:56.130Z,0.40
2022-09-09T15:02:23.300Z,0.77
2022-09-09T15:04:54.382Z,0.45
2022-09-09T15:07:21.478Z,0.60
2022-09-09T15:09:49.640Z,0.40
2022-09-09T15:12:19.700Z,1.15
2022-09-09T15:14:47.072Z,0.80
2022-09-09T15:17:14.379Z,0.75
2022-09-09T15:19:43.023Z,0.70
2022-09-09T15:22:10.514Z,0.70
2022-09-09T15:24:37.676Z,0.68
2022-09-09T15:27:04.937Z,0.50
2022-09-09T15:29:32.152Z,1.20
2022-09-09T15:31:59.237Z,0.90
2022-09-09T15:34:26.459Z,0.68
2022-09-09T15:36:54.536Z,0.52
2022-09-09T15:39:22.363Z,1.45
2022-09-09T15:41:49.924Z,1.40
2022-09-09T15:44:17.356Z,1.40
2022-09-09T15:46:50.048Z,0.52
2022-09-09T15:49:19.186Z,1.08
2022-09-09T15:51:47.477Z,0.65
2022-09-09T15:54:19.147Z,0.75
2022-09-09T15:56:47.592Z,0.80
2022-09-09T15:59:15.797Z,0.60
2022-09-09T16:01:44.448Z,0.88
2022-09-09T16:04:11.963Z,0.70
2022-09-09T16:06:40.261Z,0.82
2022-09-09T16:09:08.648Z,0.45
2022-09-09T16:11:37.782Z,1.05
2022-09-09T16:14:06.373Z,0.85
2022-09-09T16:16:34.026Z,0.82
2022-09-09T16:19:02.476Z,0.60
2022-09-09T16:21:30.948Z,0.70
2022-09-09T16:24:00.342Z,1.58
2022-09-09T16:26:28.463Z,1.25
2022-09-09T16:28:55.746Z,0.80
2022-09-09T16:31:24.276Z,0.60
2022-09-09T16:33:52.071Z,0.90
2022-09-09T16:36:23.806Z,0.73
2022-09-09T16:38:55.914Z,0.50
2022-09-09T16:41:23.565Z,0.68
2022-09-09T16:44:09.918Z,0.50
2022-09-09T16:46:39.782Z,0.60
2022-09-09T16:49:08.362Z,1.05
2022-09-09T16:51:38.966Z,1.02
2022-09-09T16:54:08.126Z,0.80
2022-09-09T16:56:37.946Z,0.70
2022-09-09T16:59:06.961Z,0.80
2022-09-09T17:01:39.098Z,0.60
2022-09-09T17:04:08.317Z,4.40
2022-09-09T17:06:36.048Z,0.85
2022-09-09T17:09:04.668Z,2.95
2022-09-09T17:11:32.070Z,1.67
2022-09-09T17:13:59.420Z,0.73
2022-09-09T17:16:28.436Z,0.70
2022-09-09T17:18:55.917Z,0.68
2022-09-09T17:21:25.053Z,0.80
2022-09-09T17:23:52.298Z,0.98
2022-09-09T17:26:20.576Z,1.15
2022-09-09T17:28:47.869Z,0.98
2022-09-09T17:31:20.487Z,0.88
2022-09-09T17:33:49.017Z,0.77
2022-09-09T17:36:20.336Z,1.65
2022-09-09T17:38:47.882Z,1.23
2022-09-09T17:41:15.042Z,0.75
2022-09-09T17:43:43.412Z,1.00
2022-09-09T17:46:13.404Z,1.65
2022-09-09T17:48:40.900Z,1.10
2022-09-09T17:51:10.018Z,0.90
2022-09-09T17:53:41.300Z,1.00
2022-09-09T17:56:09.175Z,1.10
2022-09-09T17:58:36.581Z,1.27
2022-09-09T18:01:08.254Z,1.00
2022-09-09T18:03:36.453Z,0.80
2022-09-09T18:06:05.329Z,1.20
2022-09-09T18:08:36.548Z,1.42
2022-09-09T18:11:04.690Z,1.27
2022-09-09T18:13:31.872Z,1.30
2022-09-09T18:15:59.445Z,1.20
2022-09-09T18:18:27.001Z,1.17
2022-09-09T18:21:06.576Z,1.20
2022-09-09T18:23:53.882Z,0.93
2022-09-09T18:26:26.151Z,1.30
2022-09-09T18:28:54.228Z,1.23
2022-09-09T18:31:25.703Z,1.58
2022-09-09T18:33:53.473Z,1.35
2022-09-09T18:36:25.370Z,1.30
2022-09-09T18:38:52.939Z,1.42
2022-09-09T18:41:24.072Z,1.38
2022-09-09T18:43:52.126Z,1.38
2022-09-09T18:46:20.155Z,1.25
2022-09-09T18:48:48.205Z,1.75
2022-09-09T18:51:16.371Z,1.40
2022-09-09T18:53:43.542Z,1.70
2022-09-09T18:56:12.475Z,2.10
2022-09-09T18:58:40.355Z,1.63
2022-09-09T19:01:12.407Z,1.63
2022-09-09T19:03:40.174Z,1.92
2022-09-09T19:06:07.523Z,1.80
2022-09-09T19:08:37.509Z,1.27
2022-09-09T19:11:05.260Z,1.40
2022-09-09T19:13:33.202Z,1.58
2022-09-09T19:16:07.645Z,1.95
2022-09-09T19:18:36.845Z,1.30
2022-09-09T19:21:14.693Z,1.90
2022-09-09T19:23:41.970Z,1.63
2022-09-09T19:26:10.106Z,1.70
2022-09-09T19:28:37.663Z,1.55
2022-09-09T19:31:05.660Z,1.65
2022-09-09T19:33:33.352Z,1.50
2022-09-09T19:36:02.461Z,1.80
2022-09-09T19:38:30.169Z,1.25
2022-09-09T19:40:57.407Z,1.33
2022-09-09T19:43:25.098Z,1.10
2022-09-09T19:45:58.847Z,1.30
2022-09-09T19:48:31.465Z,1.10
2022-09-09T19:51:05.174Z,1.20
2022-09-09T19:53:33.262Z,1.50
2022-09-09T19:56:00.449Z,1.17
2022-09-09T19:58:27.586Z,1.10
2022-09-09T20:00:54.745Z,1.02
2022-09-09T20:03:21.839Z,0.82
2022-09-09T20:05:49.515Z,1.02
2022-09-09T20:08:16.615Z,0.75
2022-09-09T20:10:52.008Z,1.02
2022-09-09T20:13:19.232Z,0.82
2022-09-09T20:15:46.396Z,0.80
2022-09-09T20:18:14.093Z,0.77
2022-09-09T20:20:42.270Z,1.00
2022-09-09T20:23:09.579Z,1.08
2022-09-09T20:25:38.068Z,1.02
2022-09-09T20:28:05.158Z,1.25
2022-09-09T20:30:38.145Z,1.15
2022-09-09T20:33:05.940Z,1.20
2022-09-09T20:35:33.209Z,1.45
2022-09-09T20:38:00.863Z,1.08
2022-09-09T20:40:32.806Z,0.95
2022-09-09T20:43:01.485Z,1.10
2022-09-09T20:45:29.372Z,1.05
2022-09-09T20:47:57.096Z,0.98
2022-09-09T20:50:24.796Z,1.10
2022-09-09T20:52:52.441Z,1.15
2022-09-09T20:55:19.723Z,1.40
2022-09-09T20:57:46.829Z,1.02
2022-09-09T21:00:14.985Z,1.33
2022-09-09T21:02:42.154Z,1.73
2022-09-09T21:05:11.106Z,1.40
2022-09-09T21:07:38.241Z,1.50
2022-09-09T21:10:05.642Z,1.80
2022-09-09T21:12:32.776Z,1.73
2022-09-09T21:15:00.777Z,1.65
2022-09-09T21:17:27.940Z,1.73
2022-09-09T21:19:57.332Z,1.95
2022-09-09T21:22:24.720Z,2.17
2022-09-09T21:24:53.317Z,2.00
2022-09-09T21:27:20.558Z,2.10
2022-09-09T21:29:47.718Z,1.90
2022-09-09T21:32:14.872Z,1.90
2022-09-09T21:34:42.376Z,2.10
2022-09-09T21:37:09.599Z,1.70
2022-09-09T21:39:36.754Z,1.38
2022-09-09T21:42:03.993Z,1.30
2022-09-09T21:44:31.117Z,1.30
2022-09-09T21:46:58.269Z,2.28
2022-09-09T21:49:25.404Z,1.52
2022-09-09T21:51:52.537Z,1.00
2022-09-09T21:54:19.832Z,0.80
2022-09-09T21:56:49.539Z,0.93
2022-09-09T21:59:16.811Z,1.20
2022-09-09T22:01:44.043Z,1.08
2022-09-09T22:04:11.236Z,1.00
2022-09-09T22:06:38.676Z,1.10
2022-09-09T22:09:05.766Z,1.25
2022-09-09T22:11:32.887Z,1.20
2022-09-09T22:14:00.083Z,1.00
2022-09-09T22:16:27.248Z,1.00
2022-09-09T22:18:56.746Z,0.95
2022-09-09T22:21:24.192Z,1.10
2022-09-09T22:23:53.045Z,1.20
2022-09-09T22:26:20.154Z,1.02
2022-09-09T22:28:47.419Z,1.05
2022-09-09T22:31:14.875Z,0.93
2022-09-09T22:33:42.038Z,1.02
2022-09-09T22:36:09.216Z,0.90
2022-09-09T22:38:36.603Z,0.70
2022-09-09T22:41:04.475Z,0.98
2022-09-09T22:43:34.815Z,1.20
2022-09-09T22:46:02.432Z,0.98
2022-09-09T22:48:32.967Z,0.73
2022-09-09T22:51:07.066Z,0.70
2022-09-09T22:53:35.682Z,0.93
2022-09-09T22:56:04.355Z,0.70
2022-09-09T22:58:32.691Z,0.60
2022-09-09T23:01:00.429Z,0.52
2022-09-09T23:03:28.153Z,0.50
2022-09-09T23:05:57.391Z,0.57
2022-09-09T23:08:35.525Z,0.43
2022-09-09T23:11:08.780Z,0.77
2022-09-09T23:13:43.153Z,0.40
2022-09-09T23:16:11.338Z,0.50
2022-09-09T23:18:40.402Z,0.40
2022-09-09T23:21:08.243Z,0.40
2022-09-09T23:23:35.515Z,0.50
2022-09-09T23:26:03.256Z,0.60
2022-09-09T23:28:32.045Z,0.47
2022-09-09T23:30:59.651Z,0.70
2022-09-09T23:33:26.872Z,0.60
2022-09-09T23:36:07.798Z,0.60
2022-09-09T23:38:36.375Z,0.50
2022-09-09T23:41:03.603Z,0.43
2022-09-09T23:43:30.725Z,0.55
2022-09-09T23:45:57.964Z,0.68
2022-09-09T23:48:28.104Z,0.40
2022-09-09T23:50:55.427Z,0.20
2022-09-09T23:53:22.637Z,0.20
2022-09-09T23:55:49.731Z,0.55
2022-09-09T23:58:16.794Z,0.28
